sensor_id;sensor_type;location;lat;lon;timestamp;temperature;humidity
13205;DHT22;6667;52.634;9.226;2024-03-08T00:01:41;0.70;99.90
13205;DHT22;6667;52.634;9.226;2024-03-08T00:04:11;0.60;99.90
13205;DHT22;6667;52.634;9.226;2024-03-08T00:06:38;0.60;99.90
13205;DHT22;6667;52.634;9.226;2024-03-08T00:09:05;0.60;99.90
13205;DHT22;6667;52.634;9.226;2024-03-08T00:11:33;0.60;99.90
13205;DHT22;6667;52.634;9.226;2024-03-08T00:14:00;0.50;99.90
13205;DHT22;6667;52.634;9.226;2024-03-08T00:16:27;0.50;99.90
13205;DHT22;6667;52.634;9.226;2024-03-08T00:18:54;0.50;99.90
13205;DHT22;6667;52.634;9.226;2024-03-08T00:21:22;0.50;99.90
13205;DHT22;6667;52.634;9.226;2024-03-08T00:23:48;0.40;99.90
13205;DHT22;6667;52.634;9.226;2024-03-08T00:26:15;0.40;99.90
13205;DHT22;6667;52.634;9.226;2024-03-08T00:28:42;0.40;99.90
13205;DHT22;6667;52.634;9.226;2024-03-08T00:31:08;0.40;99.90
13205;DHT22;6667;52.634;9.226;2024-03-08T00:33:35;0.30;99.90
13205;DHT22;6667;52.634;9.226;2024-03-08T00:36:02;0.30;99.90
13205;DHT22;6667;52.634;9.226;2024-03-08T00:38:30;0.30;99.90
13205;DHT22;6667;52.634;9.226;2024-03-08T00:40:57;0.20;99.90
13205;DHT22;6667;52.634;9.226;2024-03-08T00:43:23;0.20;99.90
13205;DHT22;6667;52.634;9.226;2024-03-08T00:45:50;0.20;99.90
13205;DHT22;6667;52.634;9.226;2024-03-08T00:48:16;0.20;99.90
13205;DHT22;6667;52.634;9.226;2024-03-08T00:50:43;0.20;99.90
13205;DHT22;6667;52.634;9.226;2024-03-08T00:53:11;0.10;99.90
13205;DHT22;6667;52.634;9.226;2024-03-08T00:55:39;0.10;99.90
13205;DHT22;6667;52.634;9.226;2024-03-08T00:58:05;0.10;99.90
13205;DHT22;6667;52.634;9.226;2024-03-08T01:00:33;0.10;99.90
13205;DHT22;6667;52.634;9.226;2024-03-08T01:03:00;0.10;99.90
13205;DHT22;6667;52.634;9.226;2024-03-08T01:05:28;0.10;99.90
13205;DHT22;6667;52.634;9.226;2024-03-08T01:07:55;0.10;99.90
13205;DHT22;6667;52.634;9.226;2024-03-08T01:10:22;0.10;99.90
13205;DHT22;6667;52.634;9.226;2024-03-08T01:12:50;0.10;99.90
13205;DHT22;6667;52.634;9.226;2024-03-08T01:15:17;0.20;99.90
13205;DHT22;6667;52.634;9.226;2024-03-08T01:17:43;0.20;99.90
13205;DHT22;6667;52.634;9.226;2024-03-08T01:20:10;0.30;99.90
13205;DHT22;6667;52.634;9.226;2024-03-08T01:22:37;0.30;99.90
13205;DHT22;6667;52.634;9.226;2024-03-08T01:25:05;0.30;99.90
13205;DHT22;6667;52.634;9.226;2024-03-08T01:27:32;0.40;99.90
13205;DHT22;6667;52.634;9.226;2024-03-08T01:29:59;0.40;99.90
13205;DHT22;6667;52.634;9.226;2024-03-08T01:32:25;0.30;99.90
13205;DHT22;6667;52.634;9.226;2024-03-08T01:34:52;0.20;99.90
13205;DHT22;6667;52.634;9.226;2024-03-08T01:37:18;0.20;99.90
13205;DHT22;6667;52.634;9.226;2024-03-08T01:39:45;0.30;99.90
13205;DHT22;6667;52.634;9.226;2024-03-08T01:42:12;0.30;99.90
13205;DHT22;6667;52.634;9.226;2024-03-08T01:44:40;0.30;99.90
13205;DHT22;6667;52.634;9.226;2024-03-08T01:47:11;0.30;99.90
13205;DHT22;6667;52.634;9.226;2024-03-08T01:49:38;0.40;99.90
13205;DHT22;6667;52.634;9.226;2024-03-08T01:52:05;0.30;99.90
13205;DHT22;6667;52.634;9.226;2024-03-08T01:54:32;0.30;99.90
13205;DHT22;6667;52.634;9.226;2024-03-08T01:56:58;0.20;99.90
13205;DHT22;6667;52.634;9.226;2024-03-08T01:59:25;0.30;99.90
13205;DHT22;6667;52.634;9.226;2024-03-08T02:01:55;0.30;99.90
13205;DHT22;6667;52.634;9.226;2024-03-08T02:04:23;0.20;99.90
13205;DHT22;6667;52.634;9.226;2024-03-08T02:06:50;0.20;99.90
13205;DHT22;6667;52.634;9.226;2024-03-08T02:09:17;0.30;99.90
13205;DHT22;6667;52.634;9.226;2024-03-08T02:11:43;0.20;99.90
13205;DHT22;6667;52.634;9.226;2024-03-08T02:14:11;0.20;99.90
13205;DHT22;6667;52.634;9.226;2024-03-08T02:16:38;0.20;99.90
13205;DHT22;6667;52.634;9.226;2024-03-08T02:19:04;0.10;99.90
13205;DHT22;6667;52.634;9.226;2024-03-08T02:21:36;0.10;99.90
13205;DHT22;6667;52.634;9.226;2024-03-08T02:24:04;0.10;99.90
13205;DHT22;6667;52.634;9.226;2024-03-08T02:26:31;0.10;99.90
13205;DHT22;6667;52.634;9.226;2024-03-08T02:28:57;0.10;99.90
13205;DHT22;6667;52.634;9.226;2024-03-08T02:31:24;0.10;99.90
13205;DHT22;6667;52.634;9.226;2024-03-08T02:33:50;0.10;99.90
13205;DHT22;6667;52.634;9.226;2024-03-08T02:36:17;0.10;99.90
13205;DHT22;6667;52.634;9.226;2024-03-08T02:38:45;0.10;99.90
13205;DHT22;6667;52.634;9.226;2024-03-08T02:41:12;0.00;99.90
13205;DHT22;6667;52.634;9.226;2024-03-08T02:43:38;0.10;99.90
13205;DHT22;6667;52.634;9.226;2024-03-08T02:46:05;0.00;99.90
13205;DHT22;6667;52.634;9.226;2024-03-08T02:48:31;0.00;99.90
13205;DHT22;6667;52.634;9.226;2024-03-08T02:50:58;0.00;99.90
13205;DHT22;6667;52.634;9.226;2024-03-08T02:53:25;0.00;99.90
13205;DHT22;6667;52.634;9.226;2024-03-08T02:55:53;0.00;99.90
13205;DHT22;6667;52.634;9.226;2024-03-08T02:58:20;0.00;99.90
13205;DHT22;6667;52.634;9.226;2024-03-08T03:00:47;-0.10;99.90
13205;DHT22;6667;52.634;9.226;2024-03-08T03:03:13;-0.10;99.90
13205;DHT22;6667;52.634;9.226;2024-03-08T03:05:40;-0.10;99.90
13205;DHT22;6667;52.634;9.226;2024-03-08T03:08:07;-0.10;99.90
13205;DHT22;6667;52.634;9.226;2024-03-08T03:10:35;-0.20;99.90
13205;DHT22;6667;52.634;9.226;2024-03-08T03:13:03;-0.20;99.90
13205;DHT22;6667;52.634;9.226;2024-03-08T03:15:30;-0.20;99.90
13205;DHT22;6667;52.634;9.226;2024-03-08T03:17:59;-0.20;99.90
13205;DHT22;6667;52.634;9.226;2024-03-08T03:20:25;-0.20;99.90
13205;DHT22;6667;52.634;9.226;2024-03-08T03:22:57;-0.20;99.90
13205;DHT22;6667;52.634;9.226;2024-03-08T03:25:26;-0.30;99.90
13205;DHT22;6667;52.634;9.226;2024-03-08T03:27:58;-0.20;99.90
13205;DHT22;6667;52.634;9.226;2024-03-08T03:30:27;-0.30;99.90
13205;DHT22;6667;52.634;9.226;2024-03-08T03:32:58;-0.30;99.90
13205;DHT22;6667;52.634;9.226;2024-03-08T03:35:26;-0.30;99.90
13205;DHT22;6667;52.634;9.226;2024-03-08T03:37:53;-0.30;99.90
13205;DHT22;6667;52.634;9.226;2024-03-08T03:40:29;-0.30;99.90
13205;DHT22;6667;52.634;9.226;2024-03-08T03:42:56;-0.30;99.90
13205;DHT22;6667;52.634;9.226;2024-03-08T03:45:23;-0.40;99.90
13205;DHT22;6667;52.634;9.226;2024-03-08T03:47:51;-0.30;99.90
13205;DHT22;6667;52.634;9.226;2024-03-08T03:50:18;-0.40;99.90
13205;DHT22;6667;52.634;9.226;2024-03-08T03:52:45;-0.40;99.90
13205;DHT22;6667;52.634;9.226;2024-03-08T03:55:12;-0.40;99.90
13205;DHT22;6667;52.634;9.226;2024-03-08T03:57:38;-0.40;99.90
13205;DHT22;6667;52.634;9.226;2024-03-08T04:00:06;-0.50;99.90
13205;DHT22;6667;52.634;9.226;2024-03-08T04:02:36;-0.50;99.90
13205;DHT22;6667;52.634;9.226;2024-03-08T04:05:04;-0.50;99.90
13205;DHT22;6667;52.634;9.226;2024-03-08T04:07:31;-0.40;99.90
13205;DHT22;6667;52.634;9.226;2024-03-08T04:09:58;-0.50;99.90
13205;DHT22;6667;52.634;9.226;2024-03-08T04:12:24;-0.50;99.90
13205;DHT22;6667;52.634;9.226;2024-03-08T04:14:51;-0.50;99.90
13205;DHT22;6667;52.634;9.226;2024-03-08T04:17:18;-0.50;99.90
13205;DHT22;6667;52.634;9.226;2024-03-08T04:19:45;-0.50;99.90
13205;DHT22;6667;52.634;9.226;2024-03-08T04:22:12;-0.50;99.90
13205;DHT22;6667;52.634;9.226;2024-03-08T04:24:38;-0.50;99.90
13205;DHT22;6667;52.634;9.226;2024-03-08T04:27:05;-0.60;99.90
13205;DHT22;6667;52.634;9.226;2024-03-08T04:29:32;-0.60;99.90
13205;DHT22;6667;52.634;9.226;2024-03-08T04:32:00;-0.60;99.90
13205;DHT22;6667;52.634;9.226;2024-03-08T04:34:29;-0.60;99.90
13205;DHT22;6667;52.634;9.226;2024-03-08T04:36:57;-0.60;99.90
13205;DHT22;6667;52.634;9.226;2024-03-08T04:39:25;-0.60;99.90
13205;DHT22;6667;52.634;9.226;2024-03-08T04:41:53;-0.60;99.90
13205;DHT22;6667;52.634;9.226;2024-03-08T04:44:22;-0.60;99.90
13205;DHT22;6667;52.634;9.226;2024-03-08T04:46:50;-0.60;99.90
13205;DHT22;6667;52.634;9.226;2024-03-08T04:49:16;-0.60;99.90
13205;DHT22;6667;52.634;9.226;2024-03-08T04:51:43;-0.60;99.90
13205;DHT22;6667;52.634;9.226;2024-03-08T04:54:11;-0.60;99.90
13205;DHT22;6667;52.634;9.226;2024-03-08T04:56:39;-0.70;99.90
13205;DHT22;6667;52.634;9.226;2024-03-08T04:59:06;-0.70;99.90
13205;DHT22;6667;52.634;9.226;2024-03-08T05:01:34;-0.70;99.90
13205;DHT22;6667;52.634;9.226;2024-03-08T05:04:02;-0.70;99.90
13205;DHT22;6667;52.634;9.226;2024-03-08T05:06:28;-0.70;99.90
13205;DHT22;6667;52.634;9.226;2024-03-08T05:08:55;-0.70;99.90
13205;DHT22;6667;52.634;9.226;2024-03-08T05:11:22;-0.70;99.90
13205;DHT22;6667;52.634;9.226;2024-03-08T05:13:50;-0.70;99.90
13205;DHT22;6667;52.634;9.226;2024-03-08T05:16:17;-0.70;99.90
13205;DHT22;6667;52.634;9.226;2024-03-08T05:18:43;-0.70;99.90
13205;DHT22;6667;52.634;9.226;2024-03-08T05:21:12;-0.80;99.90
13205;DHT22;6667;52.634;9.226;2024-03-08T05:23:38;-0.70;99.90
13205;DHT22;6667;52.634;9.226;2024-03-08T05:26:05;-0.80;99.90
13205;DHT22;6667;52.634;9.226;2024-03-08T05:28:32;-0.80;99.90
13205;DHT22;6667;52.634;9.226;2024-03-08T05:31:00;-0.80;99.90
13205;DHT22;6667;52.634;9.226;2024-03-08T05:33:26;-0.80;99.90
13205;DHT22;6667;52.634;9.226;2024-03-08T05:35:54;-0.80;99.90
13205;DHT22;6667;52.634;9.226;2024-03-08T05:38:21;-0.80;99.90
13205;DHT22;6667;52.634;9.226;2024-03-08T05:40:47;-0.80;99.90
13205;DHT22;6667;52.634;9.226;2024-03-08T05:43:14;-0.80;99.90
13205;DHT22;6667;52.634;9.226;2024-03-08T05:45:42;-0.90;99.90
13205;DHT22;6667;52.634;9.226;2024-03-08T05:48:10;-0.80;99.90
13205;DHT22;6667;52.634;9.226;2024-03-08T05:50:38;-0.80;99.90
13205;DHT22;6667;52.634;9.226;2024-03-08T05:53:04;-0.80;99.90
13205;DHT22;6667;52.634;9.226;2024-03-08T05:55:32;-0.80;99.90
13205;DHT22;6667;52.634;9.226;2024-03-08T05:58:00;-0.80;99.90
13205;DHT22;6667;52.634;9.226;2024-03-08T06:00:27;-0.80;99.90
13205;DHT22;6667;52.634;9.226;2024-03-08T06:02:54;-0.80;68.70
13205;DHT22;6667;52.634;9.226;2024-03-08T06:05:22;-0.80;1.00
13205;DHT22;6667;52.634;9.226;2024-03-08T06:07:50;-0.90;1.00
13205;DHT22;6667;52.634;9.226;2024-03-08T06:10:19;-0.80;1.00
13205;DHT22;6667;52.634;9.226;2024-03-08T06:12:45;-0.70;1.00
13205;DHT22;6667;52.634;9.226;2024-03-08T06:15:12;-0.80;1.00
13205;DHT22;6667;52.634;9.226;2024-03-08T06:17:40;-0.70;1.00
13205;DHT22;6667;52.634;9.226;2024-03-08T06:20:07;-0.60;99.90
13205;DHT22;6667;52.634;9.226;2024-03-08T06:22:40;-0.60;1.00
13205;DHT22;6667;52.634;9.226;2024-03-08T06:25:07;-0.60;99.90
13205;DHT22;6667;52.634;9.226;2024-03-08T06:27:34;-0.50;99.90
13205;DHT22;6667;52.634;9.226;2024-03-08T06:30:00;-0.40;99.90
13205;DHT22;6667;52.634;9.226;2024-03-08T06:32:27;-0.30;1.00
13205;DHT22;6667;52.634;9.226;2024-03-08T06:34:54;-0.20;1.00
13205;DHT22;6667;52.634;9.226;2024-03-08T06:37:20;-0.10;99.90
13205;DHT22;6667;52.634;9.226;2024-03-08T06:39:50;0.00;99.90
13205;DHT22;6667;52.634;9.226;2024-03-08T06:42:17;0.10;1.00
13205;DHT22;6667;52.634;9.226;2024-03-08T06:44:43;0.20;99.90
13205;DHT22;6667;52.634;9.226;2024-03-08T06:47:14;0.20;1.00
13205;DHT22;6667;52.634;9.226;2024-03-08T06:49:41;0.40;1.00
13205;DHT22;6667;52.634;9.226;2024-03-08T06:52:08;0.40;99.90
13205;DHT22;6667;52.634;9.226;2024-03-08T06:54:34;0.50;99.90
13205;DHT22;6667;52.634;9.226;2024-03-08T06:57:04;0.60;1.00
13205;DHT22;6667;52.634;9.226;2024-03-08T06:59:30;0.70;1.00
13205;DHT22;6667;52.634;9.226;2024-03-08T07:01:57;0.80;1.00
13205;DHT22;6667;52.634;9.226;2024-03-08T07:04:24;0.90;99.90
13205;DHT22;6667;52.634;9.226;2024-03-08T07:06:54;1.00;99.90
13205;DHT22;6667;52.634;9.226;2024-03-08T07:09:20;1.10;14.00
13205;DHT22;6667;52.634;9.226;2024-03-08T07:11:47;1.10;99.90
13205;DHT22;6667;52.634;9.226;2024-03-08T07:14:21;1.20;99.90
13205;DHT22;6667;52.634;9.226;2024-03-08T07:16:48;1.20;99.90
13205;DHT22;6667;52.634;9.226;2024-03-08T07:19:15;1.40;99.90
13205;DHT22;6667;52.634;9.226;2024-03-08T07:21:42;1.50;99.90
13205;DHT22;6667;52.634;9.226;2024-03-08T07:24:09;1.70;99.90
13205;DHT22;6667;52.634;9.226;2024-03-08T07:26:53;1.90;99.90
13205;DHT22;6667;52.634;9.226;2024-03-08T07:29:22;1.80;99.90
13205;DHT22;6667;52.634;9.226;2024-03-08T07:31:49;1.90;99.90
13205;DHT22;6667;52.634;9.226;2024-03-08T07:34:26;2.20;99.90
13205;DHT22;6667;52.634;9.226;2024-03-08T07:36:53;2.20;99.90
13205;DHT22;6667;52.634;9.226;2024-03-08T07:39:21;2.40;99.90
13205;DHT22;6667;52.634;9.226;2024-03-08T07:41:49;2.60;99.90
13205;DHT22;6667;52.634;9.226;2024-03-08T07:44:18;2.70;99.90
13205;DHT22;6667;52.634;9.226;2024-03-08T07:46:45;2.70;99.90
13205;DHT22;6667;52.634;9.226;2024-03-08T07:49:12;2.80;99.90
13205;DHT22;6667;52.634;9.226;2024-03-08T07:51:40;3.00;99.90
13205;DHT22;6667;52.634;9.226;2024-03-08T07:54:07;3.50;99.90
13205;DHT22;6667;52.634;9.226;2024-03-08T07:56:34;3.50;99.90
13205;DHT22;6667;52.634;9.226;2024-03-08T07:59:01;3.90;99.90
13205;DHT22;6667;52.634;9.226;2024-03-08T08:01:29;3.70;99.90
13205;DHT22;6667;52.634;9.226;2024-03-08T08:03:57;3.60;99.90
13205;DHT22;6667;52.634;9.226;2024-03-08T08:06:23;3.90;99.90
13205;DHT22;6667;52.634;9.226;2024-03-08T08:08:50;4.30;99.90
13205;DHT22;6667;52.634;9.226;2024-03-08T08:11:17;4.50;99.90
13205;DHT22;6667;52.634;9.226;2024-03-08T08:13:44;4.90;99.90
13205;DHT22;6667;52.634;9.226;2024-03-08T08:16:10;5.10;99.90
13205;DHT22;6667;52.634;9.226;2024-03-08T08:18:38;4.80;99.90
13205;DHT22;6667;52.634;9.226;2024-03-08T08:21:07;4.90;99.90
13205;DHT22;6667;52.634;9.226;2024-03-08T08:23:34;5.20;99.90
13205;DHT22;6667;52.634;9.226;2024-03-08T08:26:00;5.20;99.90
13205;DHT22;6667;52.634;9.226;2024-03-08T08:28:28;5.50;99.90
13205;DHT22;6667;52.634;9.226;2024-03-08T08:30:56;6.10;99.90
13205;DHT22;6667;52.634;9.226;2024-03-08T08:33:22;5.50;99.90
13205;DHT22;6667;52.634;9.226;2024-03-08T08:35:50;5.80;99.90
13205;DHT22;6667;52.634;9.226;2024-03-08T08:38:20;5.70;99.90
13205;DHT22;6667;52.634;9.226;2024-03-08T08:40:47;6.10;99.90
13205;DHT22;6667;52.634;9.226;2024-03-08T08:43:14;6.50;99.90
13205;DHT22;6667;52.634;9.226;2024-03-08T08:45:40;6.90;99.90
13205;DHT22;6667;52.634;9.226;2024-03-08T08:48:08;7.70;99.90
13205;DHT22;6667;52.634;9.226;2024-03-08T08:50:35;7.60;99.90
13205;DHT22;6667;52.634;9.226;2024-03-08T08:53:03;7.90;99.90
13205;DHT22;6667;52.634;9.226;2024-03-08T08:55:33;8.10;99.90
13205;DHT22;6667;52.634;9.226;2024-03-08T08:58:01;7.90;99.90
13205;DHT22;6667;52.634;9.226;2024-03-08T09:00:28;7.70;99.90
13205;DHT22;6667;52.634;9.226;2024-03-08T09:02:56;7.50;99.90
13205;DHT22;6667;52.634;9.226;2024-03-08T09:05:24;7.00;99.90
13205;DHT22;6667;52.634;9.226;2024-03-08T09:07:51;7.30;99.90
13205;DHT22;6667;52.634;9.226;2024-03-08T09:10:18;7.60;99.90
13205;DHT22;6667;52.634;9.226;2024-03-08T09:12:46;7.80;99.90
13205;DHT22;6667;52.634;9.226;2024-03-08T09:15:12;7.40;99.90
13205;DHT22;6667;52.634;9.226;2024-03-08T09:17:39;8.40;99.90
13205;DHT22;6667;52.634;9.226;2024-03-08T09:20:07;9.10;99.90
13205;DHT22;6667;52.634;9.226;2024-03-08T09:22:34;8.60;99.90
13205;DHT22;6667;52.634;9.226;2024-03-08T09:25:00;7.40;99.90
13205;DHT22;6667;52.634;9.226;2024-03-08T09:27:27;7.50;99.90
13205;DHT22;6667;52.634;9.226;2024-03-08T09:29:55;8.00;99.90
13205;DHT22;6667;52.634;9.226;2024-03-08T09:32:22;8.20;99.90
13205;DHT22;6667;52.634;9.226;2024-03-08T09:34:49;7.90;99.90
13205;DHT22;6667;52.634;9.226;2024-03-08T09:37:15;7.80;99.90
13205;DHT22;6667;52.634;9.226;2024-03-08T09:39:42;7.20;99.90
13205;DHT22;6667;52.634;9.226;2024-03-08T09:42:09;7.50;99.90
13205;DHT22;6667;52.634;9.226;2024-03-08T09:44:43;7.80;99.90
13205;DHT22;6667;52.634;9.226;2024-03-08T09:47:12;7.90;99.90
13205;DHT22;6667;52.634;9.226;2024-03-08T09:49:39;8.00;99.90
13205;DHT22;6667;52.634;9.226;2024-03-08T09:52:06;8.40;99.90
13205;DHT22;6667;52.634;9.226;2024-03-08T09:54:34;8.50;99.90
13205;DHT22;6667;52.634;9.226;2024-03-08T09:57:01;8.20;99.90
13205;DHT22;6667;52.634;9.226;2024-03-08T09:59:29;8.30;99.90
13205;DHT22;6667;52.634;9.226;2024-03-08T10:02:17;8.40;99.90
13205;DHT22;6667;52.634;9.226;2024-03-08T10:04:44;9.10;99.90
13205;DHT22;6667;52.634;9.226;2024-03-08T10:07:12;8.90;99.90
13205;DHT22;6667;52.634;9.226;2024-03-08T10:09:39;9.00;99.90
13205;DHT22;6667;52.634;9.226;2024-03-08T10:12:08;9.00;99.90
13205;DHT22;6667;52.634;9.226;2024-03-08T10:14:40;9.10;99.90
13205;DHT22;6667;52.634;9.226;2024-03-08T10:17:08;8.90;99.90
13205;DHT22;6667;52.634;9.226;2024-03-08T10:19:36;8.70;99.90
13205;DHT22;6667;52.634;9.226;2024-03-08T10:22:03;8.80;99.90
13205;DHT22;6667;52.634;9.226;2024-03-08T10:24:30;9.30;99.90
13205;DHT22;6667;52.634;9.226;2024-03-08T10:26:59;9.40;99.90
13205;DHT22;6667;52.634;9.226;2024-03-08T10:29:26;9.70;99.90
13205;DHT22;6667;52.634;9.226;2024-03-08T10:31:54;10.70;99.90
13205;DHT22;6667;52.634;9.226;2024-03-08T10:34:21;10.00;99.90
13205;DHT22;6667;52.634;9.226;2024-03-08T10:36:50;9.50;99.90
13205;DHT22;6667;52.634;9.226;2024-03-08T10:39:21;9.60;99.90
13205;DHT22;6667;52.634;9.226;2024-03-08T10:41:53;10.30;99.90
13205;DHT22;6667;52.634;9.226;2024-03-08T10:44:32;9.60;99.90
13205;DHT22;6667;52.634;9.226;2024-03-08T10:47:14;10.10;99.90
13205;DHT22;6667;52.634;9.226;2024-03-08T10:49:55;9.90;99.90
13205;DHT22;6667;52.634;9.226;2024-03-08T10:52:24;10.50;99.90
13205;DHT22;6667;52.634;9.226;2024-03-08T10:54:52;11.20;99.90
13205;DHT22;6667;52.634;9.226;2024-03-08T10:57:19;10.40;99.90
13205;DHT22;6667;52.634;9.226;2024-03-08T10:59:49;9.90;99.90
13205;DHT22;6667;52.634;9.226;2024-03-08T11:02:19;9.80;99.90
13205;DHT22;6667;52.634;9.226;2024-03-08T11:04:46;10.10;99.90
13205;DHT22;6667;52.634;9.226;2024-03-08T11:07:14;10.00;99.90
13205;DHT22;6667;52.634;9.226;2024-03-08T11:09:44;9.70;99.90
13205;DHT22;6667;52.634;9.226;2024-03-08T11:12:22;10.10;99.90
13205;DHT22;6667;52.634;9.226;2024-03-08T11:14:52;10.40;99.90
13205;DHT22;6667;52.634;9.226;2024-03-08T11:17:27;10.80;99.90
13205;DHT22;6667;52.634;9.226;2024-03-08T11:20:09;9.80;99.90
13205;DHT22;6667;52.634;9.226;2024-03-08T11:22:41;9.80;99.90
13205;DHT22;6667;52.634;9.226;2024-03-08T11:25:31;10.50;99.90
13205;DHT22;6667;52.634;9.226;2024-03-08T11:28:07;10.60;99.90
13205;DHT22;6667;52.634;9.226;2024-03-08T11:30:34;10.30;99.90
13205;DHT22;6667;52.634;9.226;2024-03-08T11:33:03;10.20;99.90
13205;DHT22;6667;52.634;9.226;2024-03-08T11:35:30;10.00;99.90
13205;DHT22;6667;52.634;9.226;2024-03-08T11:37:58;10.20;99.90
13205;DHT22;6667;52.634;9.226;2024-03-08T11:40:27;10.00;99.90
13205;DHT22;6667;52.634;9.226;2024-03-08T11:42:53;10.00;99.90
13205;DHT22;6667;52.634;9.226;2024-03-08T11:45:20;9.90;99.90
13205;DHT22;6667;52.634;9.226;2024-03-08T11:47:47;10.00;99.90
13205;DHT22;6667;52.634;9.226;2024-03-08T11:50:14;10.80;99.90
13205;DHT22;6667;52.634;9.226;2024-03-08T11:52:42;11.10;99.90
13205;DHT22;6667;52.634;9.226;2024-03-08T11:55:11;10.60;99.90
13205;DHT22;6667;52.634;9.226;2024-03-08T11:57:40;10.80;99.90
13205;DHT22;6667;52.634;9.226;2024-03-08T12:00:15;11.10;99.90
13205;DHT22;6667;52.634;9.226;2024-03-08T12:03:01;10.70;99.90
13205;DHT22;6667;52.634;9.226;2024-03-08T12:05:28;10.60;99.90
13205;DHT22;6667;52.634;9.226;2024-03-08T12:07:57;10.70;99.90
13205;DHT22;6667;52.634;9.226;2024-03-08T12:10:24;10.70;99.90
13205;DHT22;6667;52.634;9.226;2024-03-08T12:12:53;10.60;99.90
13205;DHT22;6667;52.634;9.226;2024-03-08T12:15:20;10.80;99.90
13205;DHT22;6667;52.634;9.226;2024-03-08T12:17:48;10.50;99.90
13205;DHT22;6667;52.634;9.226;2024-03-08T12:20:16;10.60;99.90
13205;DHT22;6667;52.634;9.226;2024-03-08T12:22:43;11.00;99.90
13205;DHT22;6667;52.634;9.226;2024-03-08T12:25:11;10.90;99.90
13205;DHT22;6667;52.634;9.226;2024-03-08T12:27:38;10.90;99.90
13205;DHT22;6667;52.634;9.226;2024-03-08T12:30:23;10.40;99.90
13205;DHT22;6667;52.634;9.226;2024-03-08T12:32:54;10.80;99.90
13205;DHT22;6667;52.634;9.226;2024-03-08T12:35:22;11.00;99.90
13205;DHT22;6667;52.634;9.226;2024-03-08T12:37:51;11.10;99.90
13205;DHT22;6667;52.634;9.226;2024-03-08T12:40:19;10.70;99.90
13205;DHT22;6667;52.634;9.226;2024-03-08T12:42:46;10.90;99.90
13205;DHT22;6667;52.634;9.226;2024-03-08T12:45:14;11.00;99.90
13205;DHT22;6667;52.634;9.226;2024-03-08T12:47:42;10.50;99.90
13205;DHT22;6667;52.634;9.226;2024-03-08T12:50:10;10.70;99.90
13205;DHT22;6667;52.634;9.226;2024-03-08T12:52:37;11.00;99.90
13205;DHT22;6667;52.634;9.226;2024-03-08T12:55:04;10.50;99.90
13205;DHT22;6667;52.634;9.226;2024-03-08T12:57:32;10.40;99.90
13205;DHT22;6667;52.634;9.226;2024-03-08T13:00:00;10.10;99.90
13205;DHT22;6667;52.634;9.226;2024-03-08T13:02:27;10.40;99.90
13205;DHT22;6667;52.634;9.226;2024-03-08T13:04:55;10.40;99.90
13205;DHT22;6667;52.634;9.226;2024-03-08T13:07:23;10.40;99.90
13205;DHT22;6667;52.634;9.226;2024-03-08T13:09:51;10.30;99.90
13205;DHT22;6667;52.634;9.226;2024-03-08T13:12:18;10.10;99.90
13205;DHT22;6667;52.634;9.226;2024-03-08T13:14:45;10.60;99.90
13205;DHT22;6667;52.634;9.226;2024-03-08T13:17:12;10.00;99.90
13205;DHT22;6667;52.634;9.226;2024-03-08T13:19:38;10.10;99.90
13205;DHT22;6667;52.634;9.226;2024-03-08T13:22:06;10.00;99.90
13205;DHT22;6667;52.634;9.226;2024-03-08T13:24:37;10.10;99.90
13205;DHT22;6667;52.634;9.226;2024-03-08T13:27:04;10.30;99.90
13205;DHT22;6667;52.634;9.226;2024-03-08T13:29:42;10.30;99.90
13205;DHT22;6667;52.634;9.226;2024-03-08T13:32:09;10.30;99.90
13205;DHT22;6667;52.634;9.226;2024-03-08T13:34:37;10.60;99.90
13205;DHT22;6667;52.634;9.226;2024-03-08T13:37:04;10.50;99.90
13205;DHT22;6667;52.634;9.226;2024-03-08T13:39:33;10.50;99.90
13205;DHT22;6667;52.634;9.226;2024-03-08T13:42:06;9.90;99.90
13205;DHT22;6667;52.634;9.226;2024-03-08T13:44:35;9.70;99.90
13205;DHT22;6667;52.634;9.226;2024-03-08T13:47:02;10.10;99.90
13205;DHT22;6667;52.634;9.226;2024-03-08T13:49:30;9.90;99.90
13205;DHT22;6667;52.634;9.226;2024-03-08T13:51:58;10.00;99.90
13205;DHT22;6667;52.634;9.226;2024-03-08T13:54:25;10.20;99.90
13205;DHT22;6667;52.634;9.226;2024-03-08T13:56:53;9.90;99.90
13205;DHT22;6667;52.634;9.226;2024-03-08T13:59:20;10.20;99.90
13205;DHT22;6667;52.634;9.226;2024-03-08T14:01:48;9.90;99.90
13205;DHT22;6667;52.634;9.226;2024-03-08T14:04:15;9.70;99.90
13205;DHT22;6667;52.634;9.226;2024-03-08T14:06:42;9.70;99.90
13205;DHT22;6667;52.634;9.226;2024-03-08T14:09:10;9.60;99.90
13205;DHT22;6667;52.634;9.226;2024-03-08T14:11:42;9.70;99.90
13205;DHT22;6667;52.634;9.226;2024-03-08T14:14:11;9.60;99.90
13205;DHT22;6667;52.634;9.226;2024-03-08T14:16:38;9.70;99.90
13205;DHT22;6667;52.634;9.226;2024-03-08T14:19:04;9.80;99.90
13205;DHT22;6667;52.634;9.226;2024-03-08T14:21:32;9.60;99.90
13205;DHT22;6667;52.634;9.226;2024-03-08T14:23:59;9.50;99.90
13205;DHT22;6667;52.634;9.226;2024-03-08T14:26:26;9.60;99.90
13205;DHT22;6667;52.634;9.226;2024-03-08T14:28:52;9.60;99.90
13205;DHT22;6667;52.634;9.226;2024-03-08T14:31:21;9.60;99.90
13205;DHT22;6667;52.634;9.226;2024-03-08T14:33:50;9.50;99.90
13205;DHT22;6667;52.634;9.226;2024-03-08T14:36:18;9.70;99.90
13205;DHT22;6667;52.634;9.226;2024-03-08T14:38:45;9.50;99.90
13205;DHT22;6667;52.634;9.226;2024-03-08T14:41:12;9.40;99.90
13205;DHT22;6667;52.634;9.226;2024-03-08T14:43:39;9.40;99.90
13205;DHT22;6667;52.634;9.226;2024-03-08T14:46:05;9.50;99.90
13205;DHT22;6667;52.634;9.226;2024-03-08T14:48:35;9.40;99.90
13205;DHT22;6667;52.634;9.226;2024-03-08T14:51:02;9.40;99.90
13205;DHT22;6667;52.634;9.226;2024-03-08T14:53:30;9.30;99.90
13205;DHT22;6667;52.634;9.226;2024-03-08T14:55:57;9.30;99.90
13205;DHT22;6667;52.634;9.226;2024-03-08T14:58:24;9.30;99.90
13205;DHT22;6667;52.634;9.226;2024-03-08T15:00:53;9.40;99.90
13205;DHT22;6667;52.634;9.226;2024-03-08T15:03:21;9.40;99.90
13205;DHT22;6667;52.634;9.226;2024-03-08T15:05:53;9.40;99.90
13205;DHT22;6667;52.634;9.226;2024-03-08T15:08:19;9.40;99.90
13205;DHT22;6667;52.634;9.226;2024-03-08T15:10:48;9.30;99.90
13205;DHT22;6667;52.634;9.226;2024-03-08T15:13:19;9.30;99.90
13205;DHT22;6667;52.634;9.226;2024-03-08T15:15:48;9.40;99.90
13205;DHT22;6667;52.634;9.226;2024-03-08T15:18:20;9.40;99.90
13205;DHT22;6667;52.634;9.226;2024-03-08T15:20:52;9.30;99.90
13205;DHT22;6667;52.634;9.226;2024-03-08T15:23:20;9.20;99.90
13205;DHT22;6667;52.634;9.226;2024-03-08T15:25:47;9.20;99.90
13205;DHT22;6667;52.634;9.226;2024-03-08T15:28:15;9.20;99.90
13205;DHT22;6667;52.634;9.226;2024-03-08T15:30:44;9.30;99.90
13205;DHT22;6667;52.634;9.226;2024-03-08T15:33:12;9.20;99.90
13205;DHT22;6667;52.634;9.226;2024-03-08T15:35:41;9.30;99.90
13205;DHT22;6667;52.634;9.226;2024-03-08T15:38:08;9.10;99.90
13205;DHT22;6667;52.634;9.226;2024-03-08T15:40:35;9.10;99.90
13205;DHT22;6667;52.634;9.226;2024-03-08T15:43:02;9.20;99.90
13205;DHT22;6667;52.634;9.226;2024-03-08T15:45:28;9.10;99.90
13205;DHT22;6667;52.634;9.226;2024-03-08T15:47:56;9.00;99.90
13205;DHT22;6667;52.634;9.226;2024-03-08T15:50:23;8.90;99.90
13205;DHT22;6667;52.634;9.226;2024-03-08T15:52:50;8.90;99.90
13205;DHT22;6667;52.634;9.226;2024-03-08T15:55:20;8.90;99.90
13205;DHT22;6667;52.634;9.226;2024-03-08T15:57:49;8.80;99.90
13205;DHT22;6667;52.634;9.226;2024-03-08T16:00:17;8.80;99.90